Time;durP1;ratioP1;P1;durP2;ratioP2;P2;SDS_P1;SDS_P2;PMS_P1;PMS_P2;Temp;Humidity;BMP_temperature;BMP_pressure;BME280_temperature;BME280_humidity;BME280_pressure;Samples;Min_cycle;Max_cycle;Signal;HPM_P1;HPM_P2
2023/09/23 00:02:08;;;;;;;;;1.33;1.33;;;;;13.91;69.85;100470.06;5076238;28;45435;-78
2023/09/23 00:04:35;;;;;;;;;3.33;2.00;;;;;13.78;70.29;100454.03;5061735;27;45407;-81
2023/09/23 00:07:01;;;;;;;;;1.67;1.67;;;;;13.60;70.65;100433.97;5072154;28;45362;-79
2023/09/23 00:09:28;;;;;;;;;2.33;2.00;;;;;13.74;70.28;100457.91;5055796;28;46011;-79
2023/09/23 00:11:54;;;;;;;;;3.67;2.00;;;;;13.73;70.17;100461.53;5056254;28;45315;-79
2023/09/23 00:14:19;;;;;;;;;1.00;1.00;;;;;13.76;70.28;100462.16;5056490;28;45315;-79
2023/09/23 00:16:46;;;;;;;;;1.00;1.00;;;;;13.78;70.17;100478.94;5059644;28;45545;-81
2023/09/23 00:19:12;;;;;;;;;1.00;1.00;;;;;13.69;70.63;100465.41;5059302;28;45535;-77
2023/09/23 00:21:37;;;;;;;;;2.00;2.00;;;;;13.68;70.88;100467.22;5070874;28;45719;-81
2023/09/23 00:24:05;;;;;;;;;1.00;1.00;;;;;13.75;71.08;100484.50;5059250;28;49361;-80
2023/09/23 00:26:32;;;;;;;;;0.67;0.67;;;;;13.75;70.89;100497.03;5059646;28;45374;-80
2023/09/23 00:28:57;;;;;;;;;2.00;1.00;;;;;13.71;70.95;100495.53;5059120;28;47375;-80
2023/09/23 00:31:24;;;;;;;;;2.67;1.00;;;;;13.65;70.71;100485.25;5059458;28;45276;-80
2023/09/23 00:33:50;;;;;;;;;1.00;1.00;;;;;13.69;71.18;100492.97;5058303;28;45254;-80
2023/09/23 00:36:15;;;;;;;;;1.00;1.00;;;;;13.61;71.37;100484.63;5059585;28;45220;-80
2023/09/23 00:38:41;;;;;;;;;0.00;0.00;;;;;13.60;71.25;100487.41;5059369;28;45293;-80
2023/09/23 00:41:06;;;;;;;;;1.00;1.00;;;;;13.64;71.52;100499.59;5059196;28;45290;-80
2023/09/23 00:43:33;;;;;;;;;4.00;1.00;;;;;13.63;71.20;100490.72;5059017;28;54513;-80
2023/09/23 00:45:59;;;;;;;;;3.00;1.67;;;;;13.61;71.52;100497.16;5059565;28;45521;-80
2023/09/23 00:48:25;;;;;;;;;1.67;1.67;;;;;13.55;71.45;100491.28;5069661;28;46339;-83
2023/09/23 00:50:54;;;;;;;;;1.00;1.00;;;;;13.61;71.45;100494.47;5064659;27;45446;-82
2023/09/23 00:53:21;;;;;;;;;1.00;1.00;;;;;13.57;71.58;100480.47;5060054;28;45234;-80
2023/09/23 00:55:47;;;;;;;;;0.00;0.00;;;;;13.51;71.59;100472.88;5074819;28;45600;-83
2023/09/23 00:58:17;;;;;;;;;3.00;0.33;;;;;13.60;71.44;100495.44;5077813;28;45467;-81
2023/09/23 01:00:46;;;;;;;;;1.00;1.00;;;;;13.45;71.46;100478.66;5064099;28;45393;-81
2023/09/23 01:03:12;;;;;;;;;3.00;1.00;;;;;13.54;71.21;100486.91;5078194;28;45547;-81
2023/09/23 01:05:39;;;;;;;;;2.00;1.00;;;;;13.60;71.57;100503.44;5077931;28;45609;-81
2023/09/23 01:08:25;;;;;;;;;1.00;1.00;;;;;13.49;71.86;100475.66;5083359;27;45445;-81
2023/09/23 01:10:51;;;;;;;;;1.00;1.00;;;;;13.58;71.85;100499.06;5062079;28;45912;-81
2023/09/23 01:13:23;;;;;;;;;1.33;1.00;;;;;13.57;71.84;100497.38;5059035;28;45379;-83
2023/09/23 01:15:49;;;;;;;;;2.33;2.33;;;;;13.53;71.94;100482.50;5059176;28;45393;-81
2023/09/23 01:18:15;;;;;;;;;4.00;4.00;;;;;13.66;72.18;100493.16;5058546;28;46161;-82
2023/09/23 01:20:44;;;;;;;;;1.00;1.00;;;;;13.61;72.15;100489.13;5074287;28;45521;-82
2023/09/23 01:23:10;;;;;;;;;1.00;1.00;;;;;13.71;71.26;100504.41;5079120;27;45314;-81
2023/09/23 01:25:36;;;;;;;;;0.67;0.67;;;;;13.74;71.08;100506.88;5078952;27;45462;-81
2023/09/23 01:28:08;;;;;;;;;1.00;1.00;;;;;13.62;71.46;100483.66;5071419;27;45329;-80
2023/09/23 01:30:35;;;;;;;;;1.00;1.00;;;;;13.55;71.70;100475.25;5058414;28;45303;-81
2023/09/23 01:33:04;;;;;;;;;2.00;0.33;;;;;13.77;71.25;100508.47;5059178;28;45227;-80
2023/09/23 01:35:31;;;;;;;;;3.00;1.00;;;;;13.63;71.09;100477.38;5060102;28;45539;-80
2023/09/23 01:37:56;;;;;;;;;5.67;1.00;;;;;13.75;71.14;100503.22;5062673;28;46393;-80
2023/09/23 01:40:24;;;;;;;;;3.00;1.00;;;;;13.80;70.95;100524.28;5063810;28;45281;-79
2023/09/23 01:42:50;;;;;;;;;0.67;0.33;;;;;13.58;71.04;100479.50;5062238;28;45313;-81
2023/09/23 01:45:19;;;;;;;;;1.00;1.00;;;;;13.77;70.95;100514.66;5058293;28;45548;-81
2023/09/23 01:47:45;;;;;;;;;3.00;3.00;;;;;13.71;71.31;100512.44;5070207;28;45435;-82
2023/09/23 01:50:13;;;;;;;;;1.00;1.00;;;;;13.74;71.09;100517.56;5068040;27;45349;-79
2023/09/23 01:52:41;;;;;;;;;1.00;1.00;;;;;13.77;71.68;100521.81;5058179;28;45238;-81
2023/09/23 01:55:08;;;;;;;;;2.33;1.00;;;;;13.77;71.18;100519.16;5058425;28;45469;-81
2023/09/23 01:57:34;;;;;;;;;1.00;1.00;;;;;13.80;71.29;100516.25;5057932;28;45470;-81
2023/09/23 02:00:07;;;;;;;;;0.00;0.00;;;;;13.77;71.38;100521.81;5058302;28;45455;-80
2023/09/23 02:02:33;;;;;;;;;1.00;1.00;;;;;13.71;72.04;100522.25;5062605;28;45346;-80
2023/09/23 02:04:59;;;;;;;;;0.33;0.33;;;;;13.60;71.73;100515.00;5078880;27;45451;-81
2023/09/23 02:07:26;;;;;;;;;2.00;0.33;;;;;13.66;71.59;100535.06;5078269;27;45451;-80
2023/09/23 02:09:52;;;;;;;;;1.00;1.00;;;;;13.67;71.31;100529.66;5077945;27;45488;-80
2023/09/23 02:12:17;;;;;;;;;2.33;1.00;;;;;13.69;71.83;100535.75;5078421;28;45280;-83
2023/09/23 02:14:42;;;;;;;;;1.33;1.00;;;;;13.54;71.52;100512.72;5078697;27;45367;-83
2023/09/23 02:17:08;;;;;;;;;1.00;1.00;;;;;13.50;71.75;100509.44;5078368;27;45369;-82
2023/09/23 02:19:34;;;;;;;;;2.00;1.00;;;;;13.63;71.78;100535.28;5068582;28;45613;-81
2023/09/23 02:22:05;;;;;;;;;0.67;0.67;;;;;13.56;71.76;100535.75;5058190;28;45323;-80
2023/09/23 02:24:32;;;;;;;;;1.00;1.00;;;;;13.50;71.91;100541.50;5058460;28;45389;-81
2023/09/23 02:26:58;;;;;;;;;1.33;1.33;;;;;13.38;72.41;100539.66;5057713;28;46173;-82
2023/09/23 02:29:23;;;;;;;;;2.00;2.00;;;;;13.47;72.27;100557.72;5061954;28;45772;-81
2023/09/23 02:31:49;;;;;;;;;0.67;0.67;;;;;13.39;72.68;100549.38;5080968;28;45234;-82
2023/09/23 02:34:16;;;;;;;;;0.00;0.00;;;;;13.44;72.50;100560.63;5081561;27;45519;-82
2023/09/23 02:36:43;;;;;;;;;1.67;1.00;;;;;13.28;72.36;100538.56;5080959;27;45527;-80
2023/09/23 02:39:15;;;;;;;;;2.00;1.00;;;;;13.24;72.10;100518.38;5079721;27;45428;-80
2023/09/23 02:41:41;;;;;;;;;1.00;1.00;;;;;13.44;72.06;100563.31;5063333;28;45383;-80
2023/09/23 02:44:06;;;;;;;;;3.33;1.67;;;;;13.33;72.91;100556.97;5065769;28;45449;-79
2023/09/23 02:46:32;;;;;;;;;1.00;1.00;;;;;13.34;72.81;100572.88;5064303;28;45234;-81
2023/09/23 02:48:58;;;;;;;;;2.33;2.33;;;;;13.35;72.84;100579.94;5060233;28;45461;-80
2023/09/23 02:51:24;;;;;;;;;3.33;3.00;;;;;13.20;73.83;100570.28;5082141;27;45388;-83
2023/09/23 02:53:49;;;;;;;;;4.00;4.00;;;;;13.09;73.58;100546.09;5079732;27;45303;-81
2023/09/23 02:56:15;;;;;;;;;3.33;3.33;;;;;13.18;73.53;100573.06;5077078;28;55456;-81
2023/09/23 02:58:43;;;;;;;;;1.00;1.00;;;;;13.24;73.75;100579.81;5078905;28;45311;-80
2023/09/23 03:01:14;;;;;;;;;4.00;2.67;;;;;13.11;73.60;100560.19;5078735;27;45298;-80
2023/09/23 03:03:40;;;;;;;;;3.00;2.00;;;;;13.18;73.92;100577.53;5078226;27;45376;-79
2023/09/23 03:06:07;;;;;;;;;1.00;1.00;;;;;13.18;73.63;100577.53;5078070;27;46193;-80
2023/09/23 03:08:36;;;;;;;;;4.00;2.33;;;;;13.10;73.98;100577.19;5093846;27;45408;-81
2023/09/23 03:11:06;;;;;;;;;2.33;2.00;;;;;13.02;74.29;100582.16;5071178;27;45325;-78
2023/09/23 03:13:32;;;;;;;;;1.33;1.33;;;;;12.99;74.16;100583.22;5059357;28;45537;-82
2023/09/23 03:16:27;;;;;;;;;2.00;2.00;;;;;12.95;74.12;100579.91;5058324;28;45858;-81
2023/09/23 03:21:29;;;;;;;;;1.67;1.67;;;;;13.00;74.72;100608.97;5062331;28;45282;-78
2023/09/23 03:23:54;;;;;;;;;2.00;2.00;;;;;12.97;74.37;100611.84;5061940;28;45206;-78
2023/09/23 03:26:20;;;;;;;;;3.00;3.00;;;;;12.91;74.62;100605.09;5062539;28;62096;-82
2023/09/23 03:28:46;;;;;;;;;2.00;2.00;;;;;12.97;74.26;100627.84;5064479;28;45263;-80
2023/09/23 03:31:14;;;;;;;;;1.33;0.00;;;;;12.96;74.58;100626.13;5078962;28;45337;-79
2023/09/23 03:33:41;;;;;;;;;2.00;2.00;;;;;12.88;74.68;100612.44;5077991;27;45388;-79
2023/09/23 03:36:14;;;;;;;;;5.33;3.00;;;;;12.97;74.19;100635.88;5077103;27;45895;-80
2023/09/23 03:38:39;;;;;;;;;1.33;1.33;;;;;12.91;74.67;100612.25;5076950;27;45445;-80
2023/09/23 03:41:04;;;;;;;;;2.00;2.00;;;;;12.89;74.30;100625.69;5057572;28;47037;-80
2023/09/23 03:43:30;;;;;;;;;1.67;1.67;;;;;12.85;74.49;100624.16;5056954;28;45317;-80
2023/09/23 03:45:56;;;;;;;;;1.33;1.33;;;;;12.83;74.80;100628.75;5059646;28;46184;-80
2023/09/23 03:48:21;;;;;;;;;0.67;0.67;;;;;12.90;74.54;100638.09;5068551;27;45541;-79
2023/09/23 03:50:53;;;;;;;;;2.00;2.00;;;;;12.80;74.58;100617.44;5060357;27;45449;-79
2023/09/23 03:53:22;;;;;;;;;3.67;1.33;;;;;12.92;74.57;100641.50;5056904;28;45468;-79
2023/09/23 03:55:52;;;;;;;;;1.33;1.33;;;;;12.91;74.55;100645.13;5056313;28;45840;-80
2023/09/23 03:58:17;;;;;;;;;5.00;2.00;;;;;12.75;74.54;100620.38;5056199;28;45244;-80
2023/09/23 04:00:43;;;;;;;;;2.67;1.00;;;;;12.90;74.49;100643.44;5062206;28;45331;-80
2023/09/23 04:03:10;;;;;;;;;1.00;1.00;;;;;12.89;74.20;100647.06;5077212;27;45336;-79
2023/09/23 04:05:35;;;;;;;;;2.33;2.00;;;;;12.79;74.58;100629.91;5076775;27;45372;-80
2023/09/23 04:08:01;;;;;;;;;2.00;1.67;;;;;12.74;74.55;100629.34;5076398;28;45349;-80
2023/09/23 04:10:27;;;;;;;;;0.67;0.67;;;;;12.86;74.62;100647.22;5063175;28;66457;-81
2023/09/23 04:12:54;;;;;;;;;2.00;1.00;;;;;12.84;74.66;100659.81;5088028;27;45454;-80
2023/09/23 04:15:21;;;;;;;;;3.00;1.00;;;;;12.77;74.82;100653.19;5076599;27;45355;-79
2023/09/23 04:17:47;;;;;;;;;2.00;2.00;;;;;12.68;74.73;100637.75;5076269;27;45209;-82
2023/09/23 04:20:14;;;;;;;;;2.33;2.33;;;;;12.81;74.91;100657.34;5076075;27;45357;-80
2023/09/23 04:22:41;;;;;;;;;3.00;1.33;;;;;12.76;74.89;100654.13;5076808;27;45438;-80
2023/09/23 04:25:08;;;;;;;;;2.67;2.00;;;;;12.70;74.87;100651.84;5076341;27;46070;-79
2023/09/23 04:27:36;;;;;;;;;1.00;1.00;;;;;12.77;75.31;100669.19;5088968;27;45286;-80
2023/09/23 04:30:04;;;;;;;;;3.00;3.00;;;;;12.75;75.30;100665.75;5063772;28;45251;-80
2023/09/23 04:32:29;;;;;;;;;1.67;1.00;;;;;12.74;75.21;100664.03;5092402;27;45500;-81
2023/09/23 04:34:56;;;;;;;;;1.33;1.33;;;;;12.73;75.54;100675.66;5074826;28;46255;-80
2023/09/23 04:37:21;;;;;;;;;2.00;1.00;;;;;12.67;75.97;100668.06;5075688;27;45582;-81
2023/09/23 04:39:46;;;;;;;;;4.00;2.33;;;;;12.57;75.46;100656.25;5075980;27;45738;-82
2023/09/23 04:42:12;;;;;;;;;5.00;3.00;;;;;12.68;75.49;100680.44;5077042;28;45828;-80
2023/09/23 04:44:37;;;;;;;;;1.67;1.67;;;;;12.43;75.63;100653.59;5076756;28;46120;-80
2023/09/23 04:47:02;;;;;;;;;4.67;4.67;;;;;12.61;75.59;100681.78;5063481;27;59005;-81
2023/09/23 04:49:28;;;;;;;;;2.00;2.00;;;;;12.63;75.48;100701.19;5063621;28;45260;-79
2023/09/23 04:51:53;;;;;;;;;2.00;2.00;;;;;12.62;75.68;100689.66;5060527;28;45567;-80
2023/09/23 04:54:18;;;;;;;;;2.67;2.00;;;;;12.58;75.91;100703.31;5055621;28;46261;-81
2023/09/23 04:56:43;;;;;;;;;4.00;1.67;;;;;12.55;75.79;100684.84;5067653;28;45535;-80
2023/09/23 04:59:09;;;;;;;;;1.00;1.00;;;;;12.61;75.90;100711.13;5075690;28;57974;-80
2023/09/23 05:01:34;;;;;;;;;1.00;1.00;;;;;12.60;75.53;100704.06;5065542;27;45567;-77
2023/09/23 05:04:03;;;;;;;;;2.00;2.00;;;;;12.54;75.57;100702.66;5058789;28;45879;-81
2023/09/23 05:06:28;;;;;;;;;3.00;1.67;;;;;12.56;75.82;100706.06;5068364;28;45318;-79
2023/09/23 05:08:55;;;;;;;;;2.00;2.00;;;;;12.60;75.42;100720.94;5093701;27;65800;-80
2023/09/23 05:11:20;;;;;;;;;0.00;0.00;;;;;12.49;75.27;100695.88;5079388;27;45562;-79
2023/09/23 05:13:46;;;;;;;;;1.00;1.00;;;;;12.53;75.76;100719.63;5078980;28;46273;-80
2023/09/23 05:16:11;;;;;;;;;2.00;2.00;;;;;12.49;75.85;100715.41;5075874;27;45538;-80
2023/09/23 05:18:37;;;;;;;;;3.67;2.00;;;;;12.54;75.88;100731.16;5067474;27;60356;-80
2023/09/23 05:21:03;;;;;;;;;1.00;1.00;;;;;12.53;75.71;100730.28;5057509;28;45311;-80
2023/09/23 05:23:28;;;;;;;;;0.67;0.67;;;;;12.61;75.52;100737.81;5058871;28;46023;-80
2023/09/23 05:25:57;;;;;;;;;2.67;2.33;;;;;12.57;75.88;100736.28;5059472;28;45418;-79
2023/09/23 05:28:23;;;;;;;;;2.33;2.33;;;;;12.55;76.42;100743.53;5073802;28;45301;-81
2023/09/23 05:30:48;;;;;;;;;3.67;1.00;;;;;12.54;76.10;100744.47;5060722;27;45515;-80
2023/09/23 05:33:15;;;;;;;;;0.00;0.00;;;;;12.36;76.50;100728.63;5058613;28;55509;-80
2023/09/23 05:35:40;;;;;;;;;1.00;1.00;;;;;12.52;76.06;100757.06;5060954;28;45831;-80
2023/09/23 05:38:05;;;;;;;;;2.67;1.00;;;;;12.41;75.97;100739.03;5078685;27;45333;-82
2023/09/23 05:40:30;;;;;;;;;1.00;1.00;;;;;12.49;76.09;100759.91;5094706;27;45466;-80
2023/09/23 05:42:56;;;;;;;;;1.00;1.00;;;;;12.52;76.22;100775.75;5077333;28;62971;-80
2023/09/23 05:45:24;;;;;;;;;1.00;1.00;;;;;12.51;75.84;100785.56;5078596;27;45411;-81
2023/09/23 05:47:53;;;;;;;;;3.00;1.33;;;;;12.51;75.96;100785.56;5078093;27;45323;-80
2023/09/23 05:50:20;;;;;;;;;0.67;0.67;;;;;12.51;76.17;100785.56;5078662;27;45376;-80
2023/09/23 05:52:46;;;;;;;;;3.00;1.33;;;;;12.50;76.13;100789.16;5079237;27;45430;-82
2023/09/23 05:55:12;;;;;;;;;1.00;1.00;;;;;12.44;76.07;100778.00;5077119;27;45592;-81
2023/09/23 05:57:40;;;;;;;;;3.33;3.33;;;;;12.53;75.93;100782.78;5058469;28;45337;-78
2023/09/23 06:00:10;;;;;;;;;3.00;1.00;;;;;12.55;75.79;100792.41;5061744;28;45925;-79
2023/09/23 06:02:37;;;;;;;;;1.00;1.00;;;;;12.48;75.86;100795.53;5073852;27;45449;-81
2023/09/23 06:05:03;;;;;;;;;3.00;1.00;;;;;12.54;76.08;100806.69;5077076;28;45525;-80
2023/09/23 06:07:29;;;;;;;;;0.00;0.00;;;;;12.58;75.54;100807.38;5077136;27;45315;-79
2023/09/23 06:09:55;;;;;;;;;2.67;1.00;;;;;12.53;75.37;100802.31;5077445;28;45317;-79
2023/09/23 06:12:21;;;;;;;;;1.00;1.00;;;;;12.64;75.27;100823.00;5060400;28;45988;-80
2023/09/23 06:14:48;;;;;;;;;2.00;2.00;;;;;12.68;75.11;100829.88;5056534;28;45394;-81
2023/09/23 06:17:14;;;;;;;;;1.00;1.00;;;;;12.61;75.00;100818.69;5073562;28;45739;-80
2023/09/23 06:19:39;;;;;;;;;3.67;2.00;;;;;12.65;74.56;100819.41;5060598;28;45495;-82
2023/09/23 06:22:04;;;;;;;;;3.00;2.00;;;;;12.78;74.53;100833.69;5067942;28;45866;-77
2023/09/23 06:24:30;;;;;;;;;4.00;2.00;;;;;12.76;74.68;100819.59;5068717;28;45271;-78
2023/09/23 06:26:56;;;;;;;;;1.00;1.00;;;;;12.78;73.79;100819.50;5072497;28;45538;-79
2023/09/23 06:29:21;;;;;;;;;3.67;1.00;;;;;13.00;73.52;100847.41;5066543;28;45666;-80
2023/09/23 06:31:46;;;;;;;;;1.00;1.00;;;;;12.70;73.75;100793.28;5062482;28;46141;-79
2023/09/23 06:34:12;;;;;;;;;0.33;0.33;;;;;13.11;73.01;100853.91;5073450;28;49367;-80
2023/09/23 06:36:37;;;;;;;;;2.00;1.00;;;;;13.13;72.67;100855.53;5084757;27;45253;-81
2023/09/23 06:39:04;;;;;;;;;1.33;1.00;;;;;13.14;72.77;100848.38;5070211;28;45522;-80
2023/09/23 06:41:29;;;;;;;;;1.00;1.00;;;;;13.17;72.44;100838.38;5072265;28;52106;-79
2023/09/23 06:43:54;;;;;;;;;1.67;1.67;;;;;13.30;72.11;100849.19;5076989;28;45480;-77
2023/09/23 06:46:20;;;;;;;;;3.00;3.00;;;;;13.40;71.80;100838.75;5077167;27;45683;-79
2023/09/23 06:48:45;;;;;;;;;2.67;2.67;;;;;13.50;71.22;100851.41;5065459;28;45570;-81
2023/09/23 06:51:10;;;;;;;;;1.33;1.33;;;;;13.57;70.83;100846.56;5072445;28;46278;-81
2023/09/23 06:53:36;;;;;;;;;2.00;2.00;;;;;13.92;70.18;100868.31;5061642;28;45264;-81
2023/09/23 06:56:03;;;;;;;;;4.33;3.00;;;;;14.16;69.12;100855.13;5057547;28;45218;-80
2023/09/23 06:58:28;;;;;;;;;0.00;0.00;;;;;14.18;68.88;100867.44;5060233;28;45526;-79
2023/09/23 07:00:54;;;;;;;;;1.00;1.00;;;;;14.07;68.62;100861.97;5076648;27;46006;-80
2023/09/23 07:03:19;;;;;;;;;1.33;0.67;;;;;14.06;68.68;100875.41;5077418;28;45353;-80
2023/09/23 07:05:45;;;;;;;;;3.00;1.67;;;;;13.92;69.31;100857.59;5075404;28;45363;-81
2023/09/23 07:08:10;;;;;;;;;3.00;2.00;;;;;14.01;68.87;100872.19;5070871;28;45389;-83
2023/09/23 07:10:38;;;;;;;;;3.00;2.00;;;;;14.10;68.50;100888.50;5067201;28;45293;-81
2023/09/23 07:13:04;;;;;;;;;3.00;1.00;;;;;14.16;68.61;100893.44;5076076;28;45346;-80
2023/09/23 07:15:40;;;;;;;;;2.00;2.00;;;;;14.12;68.85;100902.63;5075057;27;45275;-81
2023/09/23 07:18:06;;;;;;;;;1.00;1.00;;;;;14.12;68.90;100901.78;5067524;28;45337;-81
2023/09/23 07:20:32;;;;;;;;;2.00;1.00;;;;;14.24;68.46;100905.47;5065131;28;45953;-80
2023/09/23 07:22:58;;;;;;;;;2.33;1.33;;;;;14.34;68.27;100912.78;5076473;27;45295;-80
2023/09/23 07:25:24;;;;;;;;;1.33;1.33;;;;;14.30;68.40;100894.34;5075358;28;45498;-79
2023/09/23 07:27:49;;;;;;;;;5.33;4.67;;;;;14.48;67.72;100919.06;5074683;28;45747;-82
2023/09/23 07:30:15;;;;;;;;;3.00;1.00;;;;;14.45;67.88;100899.56;5075584;27;46012;-79
2023/09/23 07:32:40;;;;;;;;;1.00;1.00;;;;;14.82;66.99;100922.97;5080789;28;45503;-79
2023/09/23 07:35:07;;;;;;;;;0.00;0.00;;;;;14.85;65.41;100901.34;5074172;28;45564;-80
2023/09/23 07:37:33;;;;;;;;;1.00;1.00;;;;;14.81;65.67;100914.06;5069251;28;45548;-79
2023/09/23 07:39:58;;;;;;;;;3.00;2.00;;;;;14.85;65.63;100917.44;5070420;28;46049;-82
2023/09/23 07:42:24;;;;;;;;;3.00;1.00;;;;;14.81;66.11;100921.25;5077963;27;45382;-81
2023/09/23 07:44:49;;;;;;;;;1.67;1.00;;;;;14.87;66.25;100937.78;5072930;28;45428;-80
2023/09/23 07:47:15;;;;;;;;;2.33;1.00;;;;;14.81;65.99;100915.91;5063257;28;45406;-79
2023/09/23 07:49:40;;;;;;;;;2.00;1.67;;;;;14.96;66.11;100937.13;5076834;28;45408;-82
2023/09/23 07:52:06;;;;;;;;;2.00;0.67;;;;;15.00;66.17;100943.16;5079975;28;45449;-81
2023/09/23 07:54:32;;;;;;;;;3.67;2.00;;;;;15.02;65.43;100951.94;5070640;27;45203;-79
2023/09/23 07:56:58;;;;;;;;;2.00;1.00;;;;;15.12;65.10;100947.66;5075248;27;45568;-81
2023/09/23 07:59:23;;;;;;;;;2.67;1.00;;;;;15.26;64.92;100971.66;5079865;28;46276;-80
2023/09/23 08:01:52;;;;;;;;;2.00;1.00;;;;;15.07;63.91;100938.19;5076379;27;44795;-79
2023/09/23 08:04:18;;;;;;;;;2.00;1.67;;;;;15.15;64.27;100952.78;5057128;28;45499;-80
2023/09/23 08:06:43;;;;;;;;;1.33;1.00;;;;;15.43;63.59;100983.03;5069810;28;45531;-79
2023/09/23 08:09:09;;;;;;;;;2.00;2.00;;;;;15.26;63.33;100920.75;5076785;28;45752;-79
2023/09/23 08:11:35;;;;;;;;;3.67;2.00;;;;;15.92;62.65;100975.06;5075941;27;45317;-81
2023/09/23 08:14:00;;;;;;;;;1.33;1.33;;;;;16.08;61.41;100981.03;5075951;27;45443;-81
2023/09/23 08:16:25;;;;;;;;;1.67;1.67;;;;;16.30;61.16;100992.88;5072493;27;45485;-81
2023/09/23 08:18:51;;;;;;;;;3.00;0.00;;;;;16.37;60.66;101002.19;5055946;28;45329;-80
2023/09/23 08:21:16;;;;;;;;;1.00;1.00;;;;;16.38;60.47;100999.38;5054930;28;45343;-80
2023/09/23 08:23:42;;;;;;;;;2.33;1.00;;;;;16.53;60.18;101014.34;5076271;27;45334;-80
2023/09/23 08:26:08;;;;;;;;;1.67;1.67;;;;;16.57;60.46;101014.16;5072141;27;45338;-81
2023/09/23 08:28:34;;;;;;;;;3.33;1.33;;;;;16.61;59.80;101018.31;5076898;27;47271;-82
2023/09/23 08:31:00;;;;;;;;;1.33;1.00;;;;;16.61;60.01;101015.63;5063294;28;45508;-81
2023/09/23 08:33:27;;;;;;;;;1.00;1.00;;;;;16.61;60.15;101021.00;5062688;28;45527;-81
2023/09/23 08:35:53;;;;;;;;;1.00;1.00;;;;;16.64;60.38;101026.97;5079972;28;45522;-80
2023/09/23 08:38:18;;;;;;;;;1.33;1.33;;;;;16.51;60.09;101021.66;5062876;28;45430;-80
2023/09/23 08:40:45;;;;;;;;;0.67;0.67;;;;;16.53;60.16;101025.09;5081844;28;45424;-83
2023/09/23 08:43:10;;;;;;;;;1.00;1.00;;;;;16.59;60.34;101042.59;5071047;27;45464;-81
2023/09/23 08:45:43;;;;;;;;;1.00;1.00;;;;;16.57;60.53;101035.63;5072471;28;45298;-82
2023/09/23 08:48:08;;;;;;;;;0.67;0.67;;;;;16.58;60.15;101043.56;5078990;28;46230;-86
2023/09/23 08:50:35;;;;;;;;;2.00;0.33;;;;;16.56;60.60;101058.94;5075402;28;46059;-80
2023/09/23 08:53:04;;;;;;;;;1.67;1.67;;;;;16.55;61.04;101042.94;5075370;28;45456;-87
2023/09/23 08:55:30;;;;;;;;;2.00;2.00;;;;;16.46;60.68;101050.69;5083607;28;44800;-83
2023/09/23 08:58:01;;;;;;;;;0.67;0.67;;;;;16.37;60.88;101054.03;5079878;28;45329;-84
2023/09/23 09:00:30;;;;;;;;;1.00;1.00;;;;;16.46;60.59;101061.44;5059361;28;45394;-86
2023/09/23 09:02:56;;;;;;;;;3.33;1.00;;;;;16.51;60.42;101048.50;5063076;28;45467;-84
2023/09/23 09:05:21;;;;;;;;;1.67;1.67;;;;;16.73;60.40;101063.09;5075518;28;45374;-82
2023/09/23 09:07:46;;;;;;;;;1.67;1.33;;;;;16.53;59.81;101011.66;5079178;28;45476;-83
2023/09/23 09:10:13;;;;;;;;;6.00;2.67;;;;;16.77;59.71;101070.78;5079708;27;63876;-82
2023/09/23 09:12:38;;;;;;;;;1.67;0.33;;;;;16.53;59.06;101057.31;5082186;27;45262;-83
2023/09/23 09:15:04;;;;;;;;;5.67;2.00;;;;;16.49;59.45;101055.81;5079457;27;45373;-81
2023/09/23 09:17:33;;;;;;;;;1.67;1.00;;;;;16.34;59.66;101056.94;5076041;27;48504;-81
2023/09/23 09:20:11;;;;;;;;;3.33;3.00;;;;;16.28;60.80;101053.88;5081265;27;45357;-81
2023/09/23 09:22:38;;;;;;;;;2.67;1.33;;;;;16.27;60.59;101044.94;5060302;27;45449;-84
2023/09/23 09:25:04;;;;;;;;;2.67;1.00;;;;;16.42;60.27;101076.06;5079935;28;45563;-81
2023/09/23 09:27:30;;;;;;;;;1.00;1.00;;;;;16.46;60.51;101069.47;5079767;28;45476;-81
2023/09/23 09:29:55;;;;;;;;;2.00;1.33;;;;;16.51;60.51;101071.81;5082997;28;45428;-85
2023/09/23 09:32:29;;;;;;;;;1.00;1.00;;;;;16.60;59.73;101071.16;5077366;27;45363;-86
2023/09/23 09:34:59;;;;;;;;;1.67;1.33;;;;;16.68;59.84;101070.63;5064653;27;45373;-82
2023/09/23 09:37:25;;;;;;;;;2.00;2.00;;;;;16.63;59.57;101040.53;5059809;28;46214;-80
2023/09/23 09:39:56;;;;;;;;;2.00;2.00;;;;;16.65;59.16;101027.84;5068086;28;45447;-79
2023/09/23 09:42:28;;;;;;;;;6.00;6.00;;;;;16.95;59.36;101068.56;5072362;27;45787;-81
2023/09/23 09:44:55;;;;;;;;;2.00;2.00;;;;;16.94;59.43;101066.88;5062953;28;45405;-81
2023/09/23 09:47:22;;;;;;;;;1.67;1.00;;;;;16.89;58.82;101042.16;5080639;28;45443;-81
2023/09/23 09:49:51;;;;;;;;;4.33;3.00;;;;;17.11;58.72;101068.28;5082229;28;45435;-81
2023/09/23 09:52:23;;;;;;;;;3.33;3.33;;;;;17.02;58.87;101045.63;5082336;28;45381;-87
2023/09/23 09:54:58;;;;;;;;;2.67;2.67;;;;;17.19;58.47;101070.34;5079353;27;45448;-85
2023/09/23 09:57:29;;;;;;;;;4.00;1.33;;;;;17.10;58.42;101043.22;5067671;28;45382;-82
2023/09/23 10:00:00;;;;;;;;;1.33;1.00;;;;;17.26;57.47;101071.63;5067321;28;45452;-80
2023/09/23 10:02:27;;;;;;;;;1.67;1.67;;;;;17.47;58.22;101080.75;5084872;28;45419;-81
2023/09/23 10:04:53;;;;;;;;;1.33;1.00;;;;;17.52;56.78;101065.09;5087978;27;45430;-81
2023/09/23 10:07:22;;;;;;;;;2.00;0.33;;;;;17.74;56.98;101076.91;5084006;27;46071;-81
2023/09/23 10:09:54;;;;;;;;;5.00;3.33;;;;;17.96;56.25;101093.06;5084475;28;45455;-82
2023/09/23 10:12:31;;;;;;;;;2.00;2.00;;;;;18.01;54.61;101065.81;5060061;28;45573;-83
2023/09/23 10:14:57;;;;;;;;;2.67;1.00;;;;;18.14;55.93;101086.22;5075015;27;45528;-81
2023/09/23 10:17:33;;;;;;;;;2.67;2.67;;;;;18.36;54.47;101082.69;5072801;28;48367;-81
2023/09/23 10:20:00;;;;;;;;;3.00;1.00;;;;;18.48;55.29;101078.97;5070060;27;45337;-81
2023/09/23 10:22:29;;;;;;;;;1.67;1.67;;;;;18.85;53.67;101086.75;5078682;28;45505;-78
2023/09/23 10:25:04;;;;;;;;;13.00;11.00;;;;;18.91;53.10;101053.91;5080100;28;45441;-84
2023/09/23 10:27:31;;;;;;;;;5.67;5.67;;;;;19.23;51.81;101099.72;5079559;28;45399;-80
2023/09/23 10:29:57;;;;;;;;;3.67;3.67;;;;;19.27;52.07;101097.63;5079195;28;45384;-81
2023/09/23 10:32:22;;;;;;;;;5.00;3.33;;;;;19.51;51.59;101094.69;5077528;28;45495;-81
2023/09/23 10:34:49;;;;;;;;;17.67;14.00;;;;;19.63;51.12;101085.56;5079272;28;45654;-82
2023/09/23 10:37:47;;;;;;;;;2.00;2.00;;;;;20.09;50.29;101098.63;5078724;28;46830;-85
2023/09/23 10:40:12;;;;;;;;;3.00;3.00;;;;;20.46;49.58;101096.25;5039463;28;45379;-84
2023/09/23 10:42:41;;;;;;;;;4.00;1.33;;;;;20.82;48.75;101102.00;5074347;28;45559;-86
2023/09/23 10:45:08;;;;;;;;;2.00;1.67;;;;;20.96;47.89;101068.28;5064115;28;45631;-84
2023/09/23 10:47:36;;;;;;;;;0.67;0.67;;;;;21.31;47.23;101103.78;5077264;28;45523;-81
2023/09/23 10:50:05;;;;;;;;;2.00;0.67;;;;;21.40;46.41;101093.97;5066012;27;45421;-80
2023/09/23 10:52:31;;;;;;;;;1.33;1.33;;;;;21.48;46.34;101107.63;5058375;28;45512;-81
2023/09/23 10:54:57;;;;;;;;;1.00;1.00;;;;;21.42;46.52;101057.63;5058175;28;46447;-82
2023/09/23 10:57:23;;;;;;;;;0.67;0.67;;;;;21.92;45.42;101110.69;5058039;28;46076;-81
2023/09/23 10:59:52;;;;;;;;;2.50;1.25;;;;;22.18;44.39;101103.66;5057144;28;45555;-82
2023/09/23 11:02:22;;;;;;;;;1.50;1.50;;;;;22.39;44.51;101114.22;5057154;28;45469;-83
2023/09/23 11:04:48;;;;;;;;;2.00;2.00;;;;;22.64;43.83;101113.53;5074451;28;45365;-83
2023/09/23 11:07:17;;;;;;;;;1.00;1.00;;;;;22.77;43.59;101104.19;5078078;27;45455;-82
2023/09/23 11:09:46;;;;;;;;;4.00;0.75;;;;;22.82;41.96;101110.03;5078796;28;45307;-80
2023/09/23 11:12:16;;;;;;;;;0.50;0.50;;;;;22.52;43.51;101067.81;5077950;27;45495;-84
2023/09/23 11:14:45;;;;;;;;;4.00;1.50;;;;;22.73;42.38;101110.94;5067071;27;45314;-81
2023/09/23 11:17:23;;;;;;;;;14.00;14.00;;;;;22.53;42.70;101104.78;5073105;28;45405;-86
2023/09/23 11:19:53;;;;;;;;;3.67;2.67;;;;;22.55;43.18;101125.31;5072872;28;45500;-83
2023/09/23 11:22:25;;;;;;;;;4.33;4.33;;;;;22.33;42.97;101125.69;5079870;27;46016;-88
2023/09/23 11:24:51;;;;;;;;;6.00;5.00;;;;;22.31;44.09;101122.28;5068673;27;45467;-81
2023/09/23 11:27:17;;;;;;;;;3.00;2.25;;;;;22.31;42.60;101123.13;5080001;28;45441;-88